sensor_id;sensor_type;location;lat;lon;timestamp;P1;durP1;ratioP1;P2;durP2;ratioP2
21581;SDS011;10952;50.836;4.348;2023-07-13T00:02:22;10.30;;;2.73;;
21581;SDS011;10952;50.836;4.348;2023-07-13T00:04:48;10.83;;;2.30;;
21581;SDS011;10952;50.836;4.348;2023-07-13T00:07:14;10.63;;;2.30;;
21581;SDS011;10952;50.836;4.348;2023-07-13T00:09:40;10.47;;;2.40;;
21581;SDS011;10952;50.836;4.348;2023-07-13T00:12:26;9.80;;;2.03;;
21581;SDS011;10952;50.836;4.348;2023-07-13T00:14:56;10.07;;;2.23;;
21581;SDS011;10952;50.836;4.348;2023-07-13T00:17:24;9.30;;;2.37;;
21581;SDS011;10952;50.836;4.348;2023-07-13T00:19:49;15.60;;;3.70;;
21581;SDS011;10952;50.836;4.348;2023-07-13T00:22:15;9.70;;;2.67;;
21581;SDS011;10952;50.836;4.348;2023-07-13T00:24:43;13.23;;;2.73;;
21581;SDS011;10952;50.836;4.348;2023-07-13T00:27:09;9.13;;;2.33;;
21581;SDS011;10952;50.836;4.348;2023-07-13T00:29:35;11.90;;;2.50;;
21581;SDS011;10952;50.836;4.348;2023-07-13T00:32:02;10.07;;;2.17;;
21581;SDS011;10952;50.836;4.348;2023-07-13T00:34:28;9.90;;;2.20;;
21581;SDS011;10952;50.836;4.348;2023-07-13T00:36:54;9.33;;;2.67;;
21581;SDS011;10952;50.836;4.348;2023-07-13T00:39:20;10.03;;;2.63;;
21581;SDS011;10952;50.836;4.348;2023-07-13T00:41:46;14.87;;;2.60;;
21581;SDS011;10952;50.836;4.348;2023-07-13T00:44:15;10.10;;;2.20;;
21581;SDS011;10952;50.836;4.348;2023-07-13T00:46:41;15.77;;;2.40;;
21581;SDS011;10952;50.836;4.348;2023-07-13T00:49:09;9.50;;;2.47;;
21581;SDS011;10952;50.836;4.348;2023-07-13T00:51:39;13.90;;;3.03;;
21581;SDS011;10952;50.836;4.348;2023-07-13T00:54:10;11.93;;;2.53;;
21581;SDS011;10952;50.836;4.348;2023-07-13T00:56:39;11.60;;;2.40;;
21581;SDS011;10952;50.836;4.348;2023-07-13T00:59:06;10.90;;;2.13;;
21581;SDS011;10952;50.836;4.348;2023-07-13T01:01:35;7.83;;;1.93;;
21581;SDS011;10952;50.836;4.348;2023-07-13T01:04:02;13.43;;;2.33;;
21581;SDS011;10952;50.836;4.348;2023-07-13T01:06:28;12.50;;;2.57;;
21581;SDS011;10952;50.836;4.348;2023-07-13T01:08:55;15.60;;;2.50;;
21581;SDS011;10952;50.836;4.348;2023-07-13T01:11:22;11.30;;;2.53;;
21581;SDS011;10952;50.836;4.348;2023-07-13T01:13:48;10.83;;;2.43;;
21581;SDS011;10952;50.836;4.348;2023-07-13T01:16:15;12.10;;;2.73;;
21581;SDS011;10952;50.836;4.348;2023-07-13T01:18:46;10.63;;;2.50;;
21581;SDS011;10952;50.836;4.348;2023-07-13T01:21:12;11.10;;;2.30;;
21581;SDS011;10952;50.836;4.348;2023-07-13T01:23:38;9.30;;;2.10;;
21581;SDS011;10952;50.836;4.348;2023-07-13T01:26:03;12.57;;;2.50;;
21581;SDS011;10952;50.836;4.348;2023-07-13T01:28:29;12.53;;;2.47;;
21581;SDS011;10952;50.836;4.348;2023-07-13T01:30:56;12.13;;;2.90;;
21581;SDS011;10952;50.836;4.348;2023-07-13T01:33:23;9.73;;;2.60;;
21581;SDS011;10952;50.836;4.348;2023-07-13T01:35:49;7.73;;;2.10;;
21581;SDS011;10952;50.836;4.348;2023-07-13T01:38:16;7.97;;;2.27;;
21581;SDS011;10952;50.836;4.348;2023-07-13T01:40:44;13.30;;;2.30;;
21581;SDS011;10952;50.836;4.348;2023-07-13T01:43:10;9.60;;;2.60;;
21581;SDS011;10952;50.836;4.348;2023-07-13T01:45:36;12.30;;;2.43;;
21581;SDS011;10952;50.836;4.348;2023-07-13T01:48:01;14.57;;;2.70;;
21581;SDS011;10952;50.836;4.348;2023-07-13T01:50:27;10.47;;;2.57;;
21581;SDS011;10952;50.836;4.348;2023-07-13T01:52:53;17.73;;;3.07;;
21581;SDS011;10952;50.836;4.348;2023-07-13T01:55:19;9.87;;;2.00;;
21581;SDS011;10952;50.836;4.348;2023-07-13T01:57:45;8.93;;;2.83;;
21581;SDS011;10952;50.836;4.348;2023-07-13T02:00:11;11.17;;;2.73;;
21581;SDS011;10952;50.836;4.348;2023-07-13T02:02:38;9.00;;;2.47;;
21581;SDS011;10952;50.836;4.348;2023-07-13T02:05:04;14.13;;;2.93;;
21581;SDS011;10952;50.836;4.348;2023-07-13T02:07:30;15.67;;;2.73;;
21581;SDS011;10952;50.836;4.348;2023-07-13T02:09:56;10.77;;;2.43;;
21581;SDS011;10952;50.836;4.348;2023-07-13T02:12:21;10.83;;;2.90;;
21581;SDS011;10952;50.836;4.348;2023-07-13T02:14:47;11.80;;;2.60;;
21581;SDS011;10952;50.836;4.348;2023-07-13T02:17:13;10.53;;;2.80;;
21581;SDS011;10952;50.836;4.348;2023-07-13T02:19:39;14.30;;;2.93;;
21581;SDS011;10952;50.836;4.348;2023-07-13T02:22:05;12.83;;;2.60;;
21581;SDS011;10952;50.836;4.348;2023-07-13T02:24:31;14.37;;;2.90;;
21581;SDS011;10952;50.836;4.348;2023-07-13T02:26:56;9.73;;;2.40;;
21581;SDS011;10952;50.836;4.348;2023-07-13T02:29:22;14.33;;;3.17;;
21581;SDS011;10952;50.836;4.348;2023-07-13T02:31:48;11.00;;;2.73;;
21581;SDS011;10952;50.836;4.348;2023-07-13T02:34:13;10.07;;;2.67;;
21581;SDS011;10952;50.836;4.348;2023-07-13T02:36:39;12.77;;;2.83;;
21581;SDS011;10952;50.836;4.348;2023-07-13T02:39:06;17.60;;;2.80;;
21581;SDS011;10952;50.836;4.348;2023-07-13T02:41:32;10.07;;;2.90;;
21581;SDS011;10952;50.836;4.348;2023-07-13T02:43:58;12.43;;;2.87;;
21581;SDS011;10952;50.836;4.348;2023-07-13T02:46:35;9.57;;;2.83;;
21581;SDS011;10952;50.836;4.348;2023-07-13T02:49:02;12.80;;;3.00;;
21581;SDS011;10952;50.836;4.348;2023-07-13T02:51:28;9.37;;;3.10;;
21581;SDS011;10952;50.836;4.348;2023-07-13T02:53:54;11.17;;;2.73;;
21581;SDS011;10952;50.836;4.348;2023-07-13T02:56:22;8.33;;;2.90;;
21581;SDS011;10952;50.836;4.348;2023-07-13T02:58:49;15.83;;;3.30;;
21581;SDS011;10952;50.836;4.348;2023-07-13T03:01:14;11.17;;;2.93;;
21581;SDS011;10952;50.836;4.348;2023-07-13T03:03:43;20.33;;;3.00;;
21581;SDS011;10952;50.836;4.348;2023-07-13T03:06:10;14.10;;;3.20;;
21581;SDS011;10952;50.836;4.348;2023-07-13T03:08:36;15.93;;;3.43;;
21581;SDS011;10952;50.836;4.348;2023-07-13T03:11:03;13.23;;;3.47;;
21581;SDS011;10952;50.836;4.348;2023-07-13T03:13:32;11.27;;;2.70;;
21581;SDS011;10952;50.836;4.348;2023-07-13T03:15:57;11.00;;;3.00;;
21581;SDS011;10952;50.836;4.348;2023-07-13T03:18:23;14.03;;;3.87;;
21581;SDS011;10952;50.836;4.348;2023-07-13T03:20:50;12.90;;;2.70;;
21581;SDS011;10952;50.836;4.348;2023-07-13T03:23:16;6.67;;;2.40;;
21581;SDS011;10952;50.836;4.348;2023-07-13T03:25:42;10.17;;;2.67;;
21581;SDS011;10952;50.836;4.348;2023-07-13T03:28:07;13.80;;;2.97;;
21581;SDS011;10952;50.836;4.348;2023-07-13T03:30:33;13.77;;;3.07;;
21581;SDS011;10952;50.836;4.348;2023-07-13T03:32:59;17.40;;;3.47;;
21581;SDS011;10952;50.836;4.348;2023-07-13T03:35:24;10.17;;;2.83;;
21581;SDS011;10952;50.836;4.348;2023-07-13T03:37:50;14.80;;;3.33;;
21581;SDS011;10952;50.836;4.348;2023-07-13T03:40:16;16.07;;;3.33;;
21581;SDS011;10952;50.836;4.348;2023-07-13T03:42:42;15.70;;;3.27;;
21581;SDS011;10952;50.836;4.348;2023-07-13T03:45:08;17.50;;;3.90;;
21581;SDS011;10952;50.836;4.348;2023-07-13T03:47:33;11.70;;;3.27;;
21581;SDS011;10952;50.836;4.348;2023-07-13T03:49:59;13.00;;;3.03;;
21581;SDS011;10952;50.836;4.348;2023-07-13T03:52:24;11.13;;;2.80;;
21581;SDS011;10952;50.836;4.348;2023-07-13T03:54:50;15.23;;;3.20;;
21581;SDS011;10952;50.836;4.348;2023-07-13T03:57:16;18.40;;;3.47;;
21581;SDS011;10952;50.836;4.348;2023-07-13T03:59:41;16.50;;;2.93;;
21581;SDS011;10952;50.836;4.348;2023-07-13T04:02:07;10.60;;;2.80;;
21581;SDS011;10952;50.836;4.348;2023-07-13T04:04:33;15.67;;;4.83;;
21581;SDS011;10952;50.836;4.348;2023-07-13T04:06:58;12.70;;;3.57;;
21581;SDS011;10952;50.836;4.348;2023-07-13T04:09:24;10.43;;;2.90;;
21581;SDS011;10952;50.836;4.348;2023-07-13T04:11:50;11.80;;;2.77;;
21581;SDS011;10952;50.836;4.348;2023-07-13T04:14:16;13.43;;;2.90;;
21581;SDS011;10952;50.836;4.348;2023-07-13T04:16:42;13.37;;;3.53;;
21581;SDS011;10952;50.836;4.348;2023-07-13T04:19:08;18.10;;;3.10;;
21581;SDS011;10952;50.836;4.348;2023-07-13T04:21:35;18.73;;;3.30;;
21581;SDS011;10952;50.836;4.348;2023-07-13T04:24:02;11.03;;;2.90;;
21581;SDS011;10952;50.836;4.348;2023-07-13T04:26:29;17.60;;;3.47;;
21581;SDS011;10952;50.836;4.348;2023-07-13T04:28:55;19.63;;;4.23;;
21581;SDS011;10952;50.836;4.348;2023-07-13T04:31:21;17.63;;;3.60;;
21581;SDS011;10952;50.836;4.348;2023-07-13T04:33:48;10.93;;;3.33;;
21581;SDS011;10952;50.836;4.348;2023-07-13T04:36:14;13.30;;;3.27;;
21581;SDS011;10952;50.836;4.348;2023-07-13T04:38:41;18.57;;;3.83;;
21581;SDS011;10952;50.836;4.348;2023-07-13T04:41:07;21.47;;;3.30;;
21581;SDS011;10952;50.836;4.348;2023-07-13T04:43:34;17.73;;;3.33;;
21581;SDS011;10952;50.836;4.348;2023-07-13T04:46:04;15.73;;;3.50;;
21581;SDS011;10952;50.836;4.348;2023-07-13T04:48:36;18.57;;;3.40;;
21581;SDS011;10952;50.836;4.348;2023-07-13T04:51:02;21.77;;;3.87;;
21581;SDS011;10952;50.836;4.348;2023-07-13T04:53:28;13.23;;;3.47;;
21581;SDS011;10952;50.836;4.348;2023-07-13T04:55:55;15.77;;;3.70;;
21581;SDS011;10952;50.836;4.348;2023-07-13T04:58:21;15.77;;;3.63;;
21581;SDS011;10952;50.836;4.348;2023-07-13T05:00:47;16.17;;;3.43;;
21581;SDS011;10952;50.836;4.348;2023-07-13T05:03:14;16.50;;;3.37;;
21581;SDS011;10952;50.836;4.348;2023-07-13T05:05:39;9.97;;;2.90;;
21581;SDS011;10952;50.836;4.348;2023-07-13T05:08:05;13.77;;;3.30;;
21581;SDS011;10952;50.836;4.348;2023-07-13T05:10:32;21.80;;;4.30;;
21581;SDS011;10952;50.836;4.348;2023-07-13T05:12:58;17.37;;;3.73;;
21581;SDS011;10952;50.836;4.348;2023-07-13T05:15:23;15.53;;;4.23;;
21581;SDS011;10952;50.836;4.348;2023-07-13T05:17:50;18.47;;;3.97;;
21581;SDS011;10952;50.836;4.348;2023-07-13T05:20:17;14.67;;;3.57;;
21581;SDS011;10952;50.836;4.348;2023-07-13T05:22:43;17.13;;;3.43;;
21581;SDS011;10952;50.836;4.348;2023-07-13T05:25:09;15.20;;;4.20;;
21581;SDS011;10952;50.836;4.348;2023-07-13T05:27:35;14.17;;;3.03;;
21581;SDS011;10952;50.836;4.348;2023-07-13T05:30:01;13.37;;;3.60;;
21581;SDS011;10952;50.836;4.348;2023-07-13T05:32:28;12.87;;;3.00;;
21581;SDS011;10952;50.836;4.348;2023-07-13T05:34:54;16.60;;;3.70;;
21581;SDS011;10952;50.836;4.348;2023-07-13T05:37:20;16.20;;;3.90;;
21581;SDS011;10952;50.836;4.348;2023-07-13T05:39:46;18.20;;;3.20;;
21581;SDS011;10952;50.836;4.348;2023-07-13T05:42:11;15.67;;;3.73;;
21581;SDS011;10952;50.836;4.348;2023-07-13T05:44:37;19.57;;;3.47;;
21581;SDS011;10952;50.836;4.348;2023-07-13T05:47:03;10.17;;;3.30;;
21581;SDS011;10952;50.836;4.348;2023-07-13T05:49:29;13.97;;;3.33;;
21581;SDS011;10952;50.836;4.348;2023-07-13T05:51:55;15.97;;;3.30;;
21581;SDS011;10952;50.836;4.348;2023-07-13T05:54:21;21.70;;;4.30;;
21581;SDS011;10952;50.836;4.348;2023-07-13T05:56:46;16.63;;;3.57;;
21581;SDS011;10952;50.836;4.348;2023-07-13T05:59:12;15.87;;;3.60;;
21581;SDS011;10952;50.836;4.348;2023-07-13T06:01:38;21.13;;;4.47;;
21581;SDS011;10952;50.836;4.348;2023-07-13T06:04:04;14.67;;;3.10;;
21581;SDS011;10952;50.836;4.348;2023-07-13T06:06:29;11.87;;;3.27;;
21581;SDS011;10952;50.836;4.348;2023-07-13T06:08:55;24.07;;;4.73;;
21581;SDS011;10952;50.836;4.348;2023-07-13T06:11:22;18.67;;;3.50;;
21581;SDS011;10952;50.836;4.348;2023-07-13T06:13:50;12.30;;;4.07;;
21581;SDS011;10952;50.836;4.348;2023-07-13T06:16:17;17.00;;;3.70;;
21581;SDS011;10952;50.836;4.348;2023-07-13T06:18:43;20.63;;;4.47;;
21581;SDS011;10952;50.836;4.348;2023-07-13T06:21:16;17.30;;;3.27;;
21581;SDS011;10952;50.836;4.348;2023-07-13T06:23:43;18.80;;;4.20;;
21581;SDS011;10952;50.836;4.348;2023-07-13T06:26:12;14.63;;;3.57;;
21581;SDS011;10952;50.836;4.348;2023-07-13T06:28:38;19.87;;;4.30;;
21581;SDS011;10952;50.836;4.348;2023-07-13T06:31:08;13.97;;;3.27;;
21581;SDS011;10952;50.836;4.348;2023-07-13T06:33:35;16.20;;;3.67;;
21581;SDS011;10952;50.836;4.348;2023-07-13T06:36:02;17.00;;;4.33;;
21581;SDS011;10952;50.836;4.348;2023-07-13T06:38:29;20.30;;;4.57;;
21581;SDS011;10952;50.836;4.348;2023-07-13T06:40:54;19.60;;;4.80;;
21581;SDS011;10952;50.836;4.348;2023-07-13T06:43:20;18.20;;;4.30;;
21581;SDS011;10952;50.836;4.348;2023-07-13T06:45:46;18.83;;;3.77;;
21581;SDS011;10952;50.836;4.348;2023-07-13T06:48:14;14.37;;;3.13;;
21581;SDS011;10952;50.836;4.348;2023-07-13T06:50:42;17.10;;;3.50;;
21581;SDS011;10952;50.836;4.348;2023-07-13T06:53:08;15.17;;;4.77;;
21581;SDS011;10952;50.836;4.348;2023-07-13T06:55:34;14.87;;;2.87;;
21581;SDS011;10952;50.836;4.348;2023-07-13T06:58:00;13.53;;;3.63;;
21581;SDS011;10952;50.836;4.348;2023-07-13T07:00:25;21.13;;;4.10;;
21581;SDS011;10952;50.836;4.348;2023-07-13T07:02:51;18.43;;;4.07;;
21581;SDS011;10952;50.836;4.348;2023-07-13T07:05:17;17.73;;;3.87;;
21581;SDS011;10952;50.836;4.348;2023-07-13T07:07:42;15.63;;;3.33;;
21581;SDS011;10952;50.836;4.348;2023-07-13T07:10:08;12.77;;;3.50;;
21581;SDS011;10952;50.836;4.348;2023-07-13T07:12:34;19.73;;;3.83;;
21581;SDS011;10952;50.836;4.348;2023-07-13T07:14:59;9.10;;;3.37;;
21581;SDS011;10952;50.836;4.348;2023-07-13T07:17:25;16.13;;;3.90;;
21581;SDS011;10952;50.836;4.348;2023-07-13T07:19:51;11.17;;;2.93;;
21581;SDS011;10952;50.836;4.348;2023-07-13T07:22:19;18.20;;;4.90;;
21581;SDS011;10952;50.836;4.348;2023-07-13T07:24:45;14.40;;;3.67;;
21581;SDS011;10952;50.836;4.348;2023-07-13T07:27:11;20.63;;;3.73;;
21581;SDS011;10952;50.836;4.348;2023-07-13T07:29:37;14.30;;;3.60;;
21581;SDS011;10952;50.836;4.348;2023-07-13T07:32:02;14.57;;;3.97;;
21581;SDS011;10952;50.836;4.348;2023-07-13T07:34:29;15.53;;;2.97;;
21581;SDS011;10952;50.836;4.348;2023-07-13T07:36:58;13.20;;;3.20;;
21581;SDS011;10952;50.836;4.348;2023-07-13T07:39:25;12.37;;;3.23;;
21581;SDS011;10952;50.836;4.348;2023-07-13T07:41:51;20.97;;;3.90;;
21581;SDS011;10952;50.836;4.348;2023-07-13T07:44:17;14.13;;;3.13;;
21581;SDS011;10952;50.836;4.348;2023-07-13T07:46:43;12.87;;;3.87;;
21581;SDS011;10952;50.836;4.348;2023-07-13T07:49:09;22.43;;;5.10;;
21581;SDS011;10952;50.836;4.348;2023-07-13T07:51:35;13.47;;;3.40;;
21581;SDS011;10952;50.836;4.348;2023-07-13T07:54:01;13.10;;;3.43;;
21581;SDS011;10952;50.836;4.348;2023-07-13T07:56:27;13.00;;;3.13;;
21581;SDS011;10952;50.836;4.348;2023-07-13T07:58:52;12.10;;;3.33;;
21581;SDS011;10952;50.836;4.348;2023-07-13T08:01:18;17.63;;;4.13;;
21581;SDS011;10952;50.836;4.348;2023-07-13T08:03:44;16.73;;;6.03;;
21581;SDS011;10952;50.836;4.348;2023-07-13T08:06:09;10.93;;;3.20;;
21581;SDS011;10952;50.836;4.348;2023-07-13T08:08:35;13.57;;;3.60;;
21581;SDS011;10952;50.836;4.348;2023-07-13T08:11:04;13.63;;;3.67;;
21581;SDS011;10952;50.836;4.348;2023-07-13T08:13:32;12.17;;;2.97;;
21581;SDS011;10952;50.836;4.348;2023-07-13T08:15:57;14.47;;;3.30;;
21581;SDS011;10952;50.836;4.348;2023-07-13T08:18:24;9.80;;;3.07;;
21581;SDS011;10952;50.836;4.348;2023-07-13T08:20:49;20.83;;;6.00;;
21581;SDS011;10952;50.836;4.348;2023-07-13T08:23:15;14.13;;;2.93;;
21581;SDS011;10952;50.836;4.348;2023-07-13T08:25:42;12.63;;;3.50;;
21581;SDS011;10952;50.836;4.348;2023-07-13T08:28:07;11.00;;;3.13;;
21581;SDS011;10952;50.836;4.348;2023-07-13T08:30:34;8.37;;;2.70;;
21581;SDS011;10952;50.836;4.348;2023-07-13T08:33:01;13.23;;;3.00;;
21581;SDS011;10952;50.836;4.348;2023-07-13T08:35:27;9.90;;;2.90;;
21581;SDS011;10952;50.836;4.348;2023-07-13T08:37:53;9.83;;;2.90;;
21581;SDS011;10952;50.836;4.348;2023-07-13T08:40:19;13.73;;;2.77;;
21581;SDS011;10952;50.836;4.348;2023-07-13T08:42:53;10.00;;;2.80;;
21581;SDS011;10952;50.836;4.348;2023-07-13T08:47:53;9.63;;;2.93;;
21581;SDS011;10952;50.836;4.348;2023-07-13T08:50:26;9.67;;;3.00;;
21581;SDS011;10952;50.836;4.348;2023-07-13T08:53:00;12.23;;;3.20;;
21581;SDS011;10952;50.836;4.348;2023-07-13T08:55:29;11.07;;;3.50;;
21581;SDS011;10952;50.836;4.348;2023-07-13T08:58:31;11.10;;;3.13;;
21581;SDS011;10952;50.836;4.348;2023-07-13T09:03:40;11.53;;;2.97;;
21581;SDS011;10952;50.836;4.348;2023-07-13T09:06:15;14.50;;;3.20;;
21581;SDS011;10952;50.836;4.348;2023-07-13T09:14:22;8.73;;;3.07;;
21581;SDS011;10952;50.836;4.348;2023-07-13T09:16:51;11.33;;;3.20;;
21581;SDS011;10952;50.836;4.348;2023-07-13T09:19:20;9.47;;;2.90;;
21581;SDS011;10952;50.836;4.348;2023-07-13T09:21:51;12.50;;;3.90;;
21581;SDS011;10952;50.836;4.348;2023-07-13T09:26:54;7.13;;;2.43;;
21581;SDS011;10952;50.836;4.348;2023-07-13T09:29:29;11.73;;;3.30;;
21581;SDS011;10952;50.836;4.348;2023-07-13T09:32:01;9.03;;;2.90;;
21581;SDS011;10952;50.836;4.348;2023-07-13T09:34:29;11.80;;;2.97;;
21581;SDS011;10952;50.836;4.348;2023-07-13T09:36:57;12.20;;;2.80;;
21581;SDS011;10952;50.836;4.348;2023-07-13T09:39:25;11.53;;;2.20;;
21581;SDS011;10952;50.836;4.348;2023-07-13T09:44:38;11.33;;;3.73;;
21581;SDS011;10952;50.836;4.348;2023-07-13T09:47:27;13.60;;;2.93;;
21581;SDS011;10952;50.836;4.348;2023-07-13T09:49:56;9.63;;;2.83;;
21581;SDS011;10952;50.836;4.348;2023-07-13T09:52:27;11.95;;;2.92;;
21581;SDS011;10952;50.836;4.348;2023-07-13T09:55:04;13.05;;;2.80;;
21581;SDS011;10952;50.836;4.348;2023-07-13T09:57:47;9.68;;;2.85;;
21581;SDS011;10952;50.836;4.348;2023-07-13T10:00:19;12.73;;;2.70;;
21581;SDS011;10952;50.836;4.348;2023-07-13T10:02:49;11.13;;;2.50;;
21581;SDS011;10952;50.836;4.348;2023-07-13T10:05:41;7.07;;;2.10;;
21581;SDS011;10952;50.836;4.348;2023-07-13T10:08:24;7.65;;;2.72;;
21581;SDS011;10952;50.836;4.348;2023-07-13T10:11:01;7.20;;;1.88;;
21581;SDS011;10952;50.836;4.348;2023-07-13T10:13:41;7.63;;;2.10;;
21581;SDS011;10952;50.836;4.348;2023-07-13T10:16:09;7.45;;;2.25;;
21581;SDS011;10952;50.836;4.348;2023-07-13T10:21:55;8.52;;;3.38;;
21581;SDS011;10952;50.836;4.348;2023-07-13T10:24:26;9.73;;;2.00;;
21581;SDS011;10952;50.836;4.348;2023-07-13T10:29:35;10.15;;;2.95;;
21581;SDS011;10952;50.836;4.348;2023-07-13T10:32:15;10.32;;;1.83;;
21581;SDS011;10952;50.836;4.348;2023-07-13T10:34:41;6.63;;;2.28;;
21581;SDS011;10952;50.836;4.348;2023-07-13T10:37:18;5.63;;;1.90;;
21581;SDS011;10952;50.836;4.348;2023-07-13T10:39:47;10.98;;;2.10;;
21581;SDS011;10952;50.836;4.348;2023-07-13T10:42:17;9.48;;;2.22;;
21581;SDS011;10952;50.836;4.348;2023-07-13T10:44:55;7.80;;;2.40;;
21581;SDS011;10952;50.836;4.348;2023-07-13T10:47:21;7.05;;;2.28;;
21581;SDS011;10952;50.836;4.348;2023-07-13T10:49:47;9.45;;;2.40;;
21581;SDS011;10952;50.836;4.348;2023-07-13T10:58:11;6.65;;;2.05;;
21581;SDS011;10952;50.836;4.348;2023-07-13T11:00:46;8.35;;;2.45;;
21581;SDS011;10952;50.836;4.348;2023-07-13T11:03:28;7.30;;;2.70;;
21581;SDS011;10952;50.836;4.348;2023-07-13T11:14:00;6.47;;;1.95;;
21581;SDS011;10952;50.836;4.348;2023-07-13T11:16:37;7.47;;;2.10;;
21581;SDS011;10952;50.836;4.348;2023-07-13T11:22:40;11.23;;;2.17;;
21581;SDS011;10952;50.836;4.348;2023-07-13T11:24:50;8.23;;;2.45;;
21581;SDS011;10952;50.836;4.348;2023-07-13T11:28:04;7.30;;;1.92;;
21581;SDS011;10952;50.836;4.348;2023-07-13T11:32:45;7.03;;;2.05;;
21581;SDS011;10952;50.836;4.348;2023-07-13T11:35:19;12.77;;;2.95;;
21581;SDS011;10952;50.836;4.348;2023-07-13T11:37:49;8.13;;;1.92;;
21581;SDS011;10952;50.836;4.348;2023-07-13T11:40:16;9.85;;;1.95;;
21581;SDS011;10952;50.836;4.348;2023-07-13T11:42:41;7.43;;;1.67;;
21581;SDS011;10952;50.836;4.348;2023-07-13T11:45:20;9.38;;;2.72;;
21581;SDS011;10952;50.836;4.348;2023-07-13T11:47:48;6.68;;;1.85;;
21581;SDS011;10952;50.836;4.348;2023-07-13T11:50:22;8.82;;;2.03;;
21581;SDS011;10952;50.836;4.348;2023-07-13T11:52:49;10.25;;;2.70;;
21581;SDS011;10952;50.836;4.348;2023-07-13T11:55:19;6.28;;;1.98;;
21581;SDS011;10952;50.836;4.348;2023-07-13T11:58:05;12.30;;;3.45;;
21581;SDS011;10952;50.836;4.348;2023-07-13T12:00:33;8.17;;;2.10;;
21581;SDS011;10952;50.836;4.348;2023-07-13T12:03:00;4.80;;;1.63;;
21581;SDS011;10952;50.836;4.348;2023-07-13T12:05:29;4.80;;;1.90;;
21581;SDS011;10952;50.836;4.348;2023-07-13T12:07:57;5.87;;;2.60;;
21581;SDS011;10952;50.836;4.348;2023-07-13T12:10:29;6.40;;;2.00;;
21581;SDS011;10952;50.836;4.348;2023-07-13T12:13:02;7.30;;;2.45;;
21581;SDS011;10952;50.836;4.348;2023-07-13T12:15:32;7.78;;;1.98;;
21581;SDS011;10952;50.836;4.348;2023-07-13T12:18:01;6.07;;;2.58;;
21581;SDS011;10952;50.836;4.348;2023-07-13T12:20:28;5.68;;;1.80;;
21581;SDS011;10952;50.836;4.348;2023-07-13T12:23:00;11.13;;;2.87;;
21581;SDS011;10952;50.836;4.348;2023-07-13T12:25:27;4.43;;;1.35;;
21581;SDS011;10952;50.836;4.348;2023-07-13T12:27:53;6.70;;;2.33;;
21581;SDS011;10952;50.836;4.348;2023-07-13T12:33:06;4.30;;;1.50;;
21581;SDS011;10952;50.836;4.348;2023-07-13T12:35:40;6.87;;;1.80;;
21581;SDS011;10952;50.836;4.348;2023-07-13T12:38:10;8.57;;;2.40;;
21581;SDS011;10952;50.836;4.348;2023-07-13T12:40:36;4.47;;;1.90;;
21581;SDS011;10952;50.836;4.348;2023-07-13T12:43:03;5.73;;;2.20;;
21581;SDS011;10952;50.836;4.348;2023-07-13T12:45:31;9.23;;;2.70;;
21581;SDS011;10952;50.836;4.348;2023-07-13T12:47:58;6.93;;;2.60;;
21581;SDS011;10952;50.836;4.348;2023-07-13T12:50:33;7.87;;;2.80;;
21581;SDS011;10952;50.836;4.348;2023-07-13T12:53:03;9.93;;;3.30;;
21581;SDS011;10952;50.836;4.348;2023-07-13T12:55:41;5.67;;;3.07;;
21581;SDS011;10952;50.836;4.348;2023-07-13T12:58:26;10.13;;;3.70;;
21581;SDS011;10952;50.836;4.348;2023-07-13T13:00:59;7.67;;;3.40;;
21581;SDS011;10952;50.836;4.348;2023-07-13T13:06:17;9.67;;;2.73;;
21581;SDS011;10952;50.836;4.348;2023-07-13T13:08:54;29.07;;;21.50;;
21581;SDS011;10952;50.836;4.348;2023-07-13T13:11:22;4.90;;;2.60;;
21581;SDS011;10952;50.836;4.348;2023-07-13T13:13:49;6.57;;;2.63;;
21581;SDS011;10952;50.836;4.348;2023-07-13T13:16:23;7.83;;;2.00;;
21581;SDS011;10952;50.836;4.348;2023-07-13T13:19:01;3.33;;;1.60;;
21581;SDS011;10952;50.836;4.348;2023-07-13T13:21:39;5.93;;;1.90;;
21581;SDS011;10952;50.836;4.348;2023-07-13T13:24:14;6.23;;;2.17;;
21581;SDS011;10952;50.836;4.348;2023-07-13T13:26:42;6.80;;;2.40;;
21581;SDS011;10952;50.836;4.348;2023-07-13T13:29:13;8.37;;;2.40;;
21581;SDS011;10952;50.836;4.348;2023-07-13T13:31:41;7.97;;;2.60;;
21581;SDS011;10952;50.836;4.348;2023-07-13T13:34:08;5.17;;;1.90;;
21581;SDS011;10952;50.836;4.348;2023-07-13T13:36:38;6.57;;;2.50;;
21581;SDS011;10952;50.836;4.348;2023-07-13T13:39:08;4.73;;;1.70;;
21581;SDS011;10952;50.836;4.348;2023-07-13T13:41:47;5.07;;;1.70;;
21581;SDS011;10952;50.836;4.348;2023-07-13T13:44:15;7.20;;;1.90;;
21581;SDS011;10952;50.836;4.348;2023-07-13T13:46:41;6.20;;;1.90;;
21581;SDS011;10952;50.836;4.348;2023-07-13T13:49:13;4.38;;;2.00;;
21581;SDS011;10952;50.836;4.348;2023-07-13T13:51:41;6.03;;;2.20;;
21581;SDS011;10952;50.836;4.348;2023-07-13T13:54:10;3.75;;;1.60;;
21581;SDS011;10952;50.836;4.348;2023-07-13T13:56:37;4.93;;;1.85;;
21581;SDS011;10952;50.836;4.348;2023-07-13T13:59:03;5.72;;;2.17;;
21581;SDS011;10952;50.836;4.348;2023-07-13T14:01:29;9.82;;;1.85;;
21581;SDS011;10952;50.836;4.348;2023-07-13T14:03:56;4.65;;;2.05;;
21581;SDS011;10952;50.836;4.348;2023-07-13T14:06:22;5.13;;;2.10;;
21581;SDS011;10952;50.836;4.348;2023-07-13T14:08:48;8.00;;;2.25;;
21581;SDS011;10952;50.836;4.348;2023-07-13T14:11:14;4.35;;;1.48;;
21581;SDS011;10952;50.836;4.348;2023-07-13T14:13:43;6.25;;;2.00;;
21581;SDS011;10952;50.836;4.348;2023-07-13T14:16:15;8.32;;;2.40;;
21581;SDS011;10952;50.836;4.348;2023-07-13T14:18:43;4.00;;;1.58;;
21581;SDS011;10952;50.836;4.348;2023-07-13T14:21:17;6.63;;;1.92;;
21581;SDS011;10952;50.836;4.348;2023-07-13T14:23:45;5.68;;;1.90;;
21581;SDS011;10952;50.836;4.348;2023-07-13T14:26:12;9.77;;;3.00;;
21581;SDS011;10952;50.836;4.348;2023-07-13T14:28:50;4.75;;;2.00;;
21581;SDS011;10952;50.836;4.348;2023-07-13T14:31:19;5.33;;;2.00;;
21581;SDS011;10952;50.836;4.348;2023-07-13T14:33:45;8.32;;;2.50;;
21581;SDS011;10952;50.836;4.348;2023-07-13T14:38:52;6.65;;;2.28;;
21581;SDS011;10952;50.836;4.348;2023-07-13T14:41:18;5.83;;;2.20;;
21581;SDS011;10952;50.836;4.348;2023-07-13T14:43:45;3.95;;;2.08;;
21581;SDS011;10952;50.836;4.348;2023-07-13T14:48:59;6.85;;;2.55;;
21581;SDS011;10952;50.836;4.348;2023-07-13T14:51:27;4.57;;;1.73;;
21581;SDS011;10952;50.836;4.348;2023-07-13T14:53:53;4.60;;;1.80;;
21581;SDS011;10952;50.836;4.348;2023-07-13T14:56:19;5.63;;;1.92;;
21581;SDS011;10952;50.836;4.348;2023-07-13T14:58:44;6.38;;;2.08;;
21581;SDS011;10952;50.836;4.348;2023-07-13T15:01:13;6.93;;;2.45;;
21581;SDS011;10952;50.836;4.348;2023-07-13T15:03:44;5.20;;;2.17;;
21581;SDS011;10952;50.836;4.348;2023-07-13T15:06:13;6.05;;;2.47;;
21581;SDS011;10952;50.836;4.348;2023-07-13T15:08:39;7.50;;;2.10;;
21581;SDS011;10952;50.836;4.348;2023-07-13T15:11:08;4.15;;;1.80;;
21581;SDS011;10952;50.836;4.348;2023-07-13T15:13:40;6.07;;;1.92;;
21581;SDS011;10952;50.836;4.348;2023-07-13T15:16:16;6.68;;;1.92;;
21581;SDS011;10952;50.836;4.348;2023-07-13T15:18:46;6.82;;;2.00;;
21581;SDS011;10952;50.836;4.348;2023-07-13T15:21:14;7.28;;;2.20;;
21581;SDS011;10952;50.836;4.348;2023-07-13T15:23:44;3.80;;;1.70;;
21581;SDS011;10952;50.836;4.348;2023-07-13T15:26:12;3.95;;;1.70;;
21581;SDS011;10952;50.836;4.348;2023-07-13T15:28:40;7.63;;;1.63;;
21581;SDS011;10952;50.836;4.348;2023-07-13T15:33:42;8.38;;;2.05;;
21581;SDS011;10952;50.836;4.348;2023-07-13T15:36:07;12.45;;;3.03;;
21581;SDS011;10952;50.836;4.348;2023-07-13T15:38:33;6.57;;;1.98;;
21581;SDS011;10952;50.836;4.348;2023-07-13T15:41:09;7.18;;;1.90;;
21581;SDS011;10952;50.836;4.348;2023-07-13T15:43:43;5.80;;;1.77;;